sensor_id;sensor_type;location;lat;lon;timestamp;P1;durP1;ratioP1;P2;durP2;ratioP2
34765;SDS011;20984;43.508;1.504;2022-08-19T00:01:28;7.18;;;5.53;;
34765;SDS011;20984;43.508;1.504;2022-08-19T00:03:57;10.88;;;6.20;;
34765;SDS011;20984;43.508;1.504;2022-08-19T00:06:25;11.47;;;5.80;;
34765;SDS011;20984;43.508;1.504;2022-08-19T00:08:52;9.48;;;5.18;;
34765;SDS011;20984;43.508;1.504;2022-08-19T00:11:18;12.80;;;6.10;;
34765;SDS011;20984;43.508;1.504;2022-08-19T00:13:47;8.30;;;5.75;;
34765;SDS011;20984;43.508;1.504;2022-08-19T00:16:15;9.75;;;5.90;;
34765;SDS011;20984;43.508;1.504;2022-08-19T00:18:48;9.18;;;6.53;;
34765;SDS011;20984;43.508;1.504;2022-08-19T00:21:14;7.32;;;6.22;;
34765;SDS011;20984;43.508;1.504;2022-08-19T00:23:40;7.03;;;5.80;;
34765;SDS011;20984;43.508;1.504;2022-08-19T00:26:08;10.05;;;6.72;;
34765;SDS011;20984;43.508;1.504;2022-08-19T00:28:35;12.68;;;6.03;;
34765;SDS011;20984;43.508;1.504;2022-08-19T00:31:03;8.75;;;5.50;;
34765;SDS011;20984;43.508;1.504;2022-08-19T00:33:30;15.13;;;6.97;;
34765;SDS011;20984;43.508;1.504;2022-08-19T00:35:59;13.93;;;7.22;;
34765;SDS011;20984;43.508;1.504;2022-08-19T00:38:26;11.63;;;6.72;;
34765;SDS011;20984;43.508;1.504;2022-08-19T00:40:52;12.88;;;6.57;;
34765;SDS011;20984;43.508;1.504;2022-08-19T00:43:20;14.27;;;8.27;;
34765;SDS011;20984;43.508;1.504;2022-08-19T00:45:47;9.07;;;7.63;;
34765;SDS011;20984;43.508;1.504;2022-08-19T00:48:15;13.80;;;6.53;;
34765;SDS011;20984;43.508;1.504;2022-08-19T00:50:41;11.70;;;6.45;;
34765;SDS011;20984;43.508;1.504;2022-08-19T00:53:09;19.13;;;6.78;;
34765;SDS011;20984;43.508;1.504;2022-08-19T00:55:37;12.85;;;7.30;;
34765;SDS011;20984;43.508;1.504;2022-08-19T00:58:06;10.73;;;7.43;;
34765;SDS011;20984;43.508;1.504;2022-08-19T01:00:35;17.25;;;7.68;;
34765;SDS011;20984;43.508;1.504;2022-08-19T01:03:06;8.43;;;6.22;;
34765;SDS011;20984;43.508;1.504;2022-08-19T01:05:34;11.02;;;7.43;;
34765;SDS011;20984;43.508;1.504;2022-08-19T01:08:02;10.85;;;7.13;;
34765;SDS011;20984;43.508;1.504;2022-08-19T01:10:31;16.60;;;7.47;;
34765;SDS011;20984;43.508;1.504;2022-08-19T01:13:04;12.60;;;8.55;;
34765;SDS011;20984;43.508;1.504;2022-08-19T01:15:39;14.70;;;8.00;;
34765;SDS011;20984;43.508;1.504;2022-08-19T01:18:12;16.27;;;8.25;;
34765;SDS011;20984;43.508;1.504;2022-08-19T01:20:40;11.87;;;7.70;;
34765;SDS011;20984;43.508;1.504;2022-08-19T01:23:07;15.82;;;8.48;;
34765;SDS011;20984;43.508;1.504;2022-08-19T01:25:48;13.68;;;7.55;;
34765;SDS011;20984;43.508;1.504;2022-08-19T01:28:26;12.55;;;7.25;;
34765;SDS011;20984;43.508;1.504;2022-08-19T01:30:53;12.90;;;7.97;;
34765;SDS011;20984;43.508;1.504;2022-08-19T01:33:19;10.90;;;7.72;;
34765;SDS011;20984;43.508;1.504;2022-08-19T01:35:48;17.55;;;8.27;;
34765;SDS011;20984;43.508;1.504;2022-08-19T01:38:24;15.68;;;7.75;;
34765;SDS011;20984;43.508;1.504;2022-08-19T01:40:51;14.00;;;7.60;;
34765;SDS011;20984;43.508;1.504;2022-08-19T01:43:18;15.10;;;7.45;;
34765;SDS011;20984;43.508;1.504;2022-08-19T01:45:44;18.20;;;7.90;;
34765;SDS011;20984;43.508;1.504;2022-08-19T01:48:11;10.60;;;7.88;;
34765;SDS011;20984;43.508;1.504;2022-08-19T01:50:38;14.13;;;8.82;;
34765;SDS011;20984;43.508;1.504;2022-08-19T01:53:05;16.08;;;8.68;;
34765;SDS011;20984;43.508;1.504;2022-08-19T01:55:35;14.50;;;7.90;;
34765;SDS011;20984;43.508;1.504;2022-08-19T01:58:03;10.15;;;7.68;;
34765;SDS011;20984;43.508;1.504;2022-08-19T02:00:30;14.45;;;7.88;;
34765;SDS011;20984;43.508;1.504;2022-08-19T02:02:57;16.45;;;7.78;;
34765;SDS011;20984;43.508;1.504;2022-08-19T02:05:23;14.93;;;8.15;;
34765;SDS011;20984;43.508;1.504;2022-08-19T02:07:49;12.40;;;7.65;;
34765;SDS011;20984;43.508;1.504;2022-08-19T02:10:17;13.20;;;7.53;;
34765;SDS011;20984;43.508;1.504;2022-08-19T02:12:46;20.33;;;8.48;;
34765;SDS011;20984;43.508;1.504;2022-08-19T02:15:12;13.23;;;7.60;;
34765;SDS011;20984;43.508;1.504;2022-08-19T02:17:38;16.63;;;8.38;;
34765;SDS011;20984;43.508;1.504;2022-08-19T02:20:05;15.75;;;8.40;;
34765;SDS011;20984;43.508;1.504;2022-08-19T02:22:32;14.07;;;8.30;;
34765;SDS011;20984;43.508;1.504;2022-08-19T02:24:58;10.38;;;7.07;;
34765;SDS011;20984;43.508;1.504;2022-08-19T02:27:24;18.55;;;7.95;;
34765;SDS011;20984;43.508;1.504;2022-08-19T02:29:51;15.10;;;7.82;;
34765;SDS011;20984;43.508;1.504;2022-08-19T02:32:17;15.35;;;7.53;;
34765;SDS011;20984;43.508;1.504;2022-08-19T02:34:44;9.23;;;6.70;;
34765;SDS011;20984;43.508;1.504;2022-08-19T02:37:11;16.27;;;8.18;;
34765;SDS011;20984;43.508;1.504;2022-08-19T02:39:56;13.50;;;7.68;;
34765;SDS011;20984;43.508;1.504;2022-08-19T02:42:23;13.55;;;8.15;;
34765;SDS011;20984;43.508;1.504;2022-08-19T02:44:49;12.50;;;7.30;;
34765;SDS011;20984;43.508;1.504;2022-08-19T02:47:15;14.40;;;6.95;;
34765;SDS011;20984;43.508;1.504;2022-08-19T02:49:41;12.15;;;7.00;;
34765;SDS011;20984;43.508;1.504;2022-08-19T02:52:07;14.48;;;7.00;;
34765;SDS011;20984;43.508;1.504;2022-08-19T02:54:33;9.50;;;7.45;;
34765;SDS011;20984;43.508;1.504;2022-08-19T02:56:59;8.70;;;6.68;;
34765;SDS011;20984;43.508;1.504;2022-08-19T02:59:25;16.35;;;8.82;;
34765;SDS011;20984;43.508;1.504;2022-08-19T03:01:51;18.02;;;7.93;;
34765;SDS011;20984;43.508;1.504;2022-08-19T03:04:17;12.90;;;7.57;;
34765;SDS011;20984;43.508;1.504;2022-08-19T03:06:45;14.27;;;8.30;;
34765;SDS011;20984;43.508;1.504;2022-08-19T03:09:12;8.63;;;7.10;;
34765;SDS011;20984;43.508;1.504;2022-08-19T03:11:39;13.88;;;7.70;;
34765;SDS011;20984;43.508;1.504;2022-08-19T03:14:06;13.45;;;6.70;;
34765;SDS011;20984;43.508;1.504;2022-08-19T03:16:36;12.35;;;6.80;;
34765;SDS011;20984;43.508;1.504;2022-08-19T03:19:06;18.70;;;7.85;;
34765;SDS011;20984;43.508;1.504;2022-08-19T03:21:33;12.75;;;6.85;;
34765;SDS011;20984;43.508;1.504;2022-08-19T03:24:00;14.73;;;7.65;;
34765;SDS011;20984;43.508;1.504;2022-08-19T03:26:28;14.40;;;8.25;;
34765;SDS011;20984;43.508;1.504;2022-08-19T03:28:54;12.82;;;8.20;;
34765;SDS011;20984;43.508;1.504;2022-08-19T03:31:21;13.18;;;8.32;;
34765;SDS011;20984;43.508;1.504;2022-08-19T03:33:48;15.27;;;6.88;;
34765;SDS011;20984;43.508;1.504;2022-08-19T03:36:19;12.48;;;6.15;;
34765;SDS011;20984;43.508;1.504;2022-08-19T03:38:52;12.43;;;7.25;;
34765;SDS011;20984;43.508;1.504;2022-08-19T03:41:22;11.45;;;7.15;;
34765;SDS011;20984;43.508;1.504;2022-08-19T03:43:51;14.10;;;7.70;;
34765;SDS011;20984;43.508;1.504;2022-08-19T03:46:24;12.75;;;6.20;;
34765;SDS011;20984;43.508;1.504;2022-08-19T03:48:53;13.85;;;6.68;;
34765;SDS011;20984;43.508;1.504;2022-08-19T03:51:23;15.05;;;6.38;;
34765;SDS011;20984;43.508;1.504;2022-08-19T03:53:53;10.10;;;6.55;;
34765;SDS011;20984;43.508;1.504;2022-08-19T03:56:20;16.90;;;6.55;;
34765;SDS011;20984;43.508;1.504;2022-08-19T03:58:47;11.02;;;6.18;;
34765;SDS011;20984;43.508;1.504;2022-08-19T04:01:14;10.90;;;6.30;;
34765;SDS011;20984;43.508;1.504;2022-08-19T04:03:42;21.35;;;6.80;;
34765;SDS011;20984;43.508;1.504;2022-08-19T04:08:46;12.20;;;6.15;;
34765;SDS011;20984;43.508;1.504;2022-08-19T04:11:14;12.43;;;6.45;;
34765;SDS011;20984;43.508;1.504;2022-08-19T04:13:42;14.23;;;6.40;;
34765;SDS011;20984;43.508;1.504;2022-08-19T04:16:09;16.25;;;8.05;;
34765;SDS011;20984;43.508;1.504;2022-08-19T04:18:36;20.20;;;6.75;;
34765;SDS011;20984;43.508;1.504;2022-08-19T04:21:04;10.30;;;5.72;;
34765;SDS011;20984;43.508;1.504;2022-08-19T04:23:31;7.97;;;6.15;;
34765;SDS011;20984;43.508;1.504;2022-08-19T04:25:57;10.27;;;6.00;;
34765;SDS011;20984;43.508;1.504;2022-08-19T04:28:24;12.82;;;6.85;;
34765;SDS011;20984;43.508;1.504;2022-08-19T04:30:51;9.65;;;6.30;;
34765;SDS011;20984;43.508;1.504;2022-08-19T04:33:19;18.75;;;6.85;;
34765;SDS011;20984;43.508;1.504;2022-08-19T04:35:48;9.90;;;5.38;;
34765;SDS011;20984;43.508;1.504;2022-08-19T04:38:16;16.08;;;6.50;;
34765;SDS011;20984;43.508;1.504;2022-08-19T04:40:46;14.00;;;7.57;;
34765;SDS011;20984;43.508;1.504;2022-08-19T04:43:32;11.50;;;6.47;;
34765;SDS011;20984;43.508;1.504;2022-08-19T04:46:07;13.57;;;5.97;;
34765;SDS011;20984;43.508;1.504;2022-08-19T04:48:35;13.18;;;5.55;;
34765;SDS011;20984;43.508;1.504;2022-08-19T04:51:08;8.57;;;5.97;;
34765;SDS011;20984;43.508;1.504;2022-08-19T04:53:37;12.35;;;6.80;;
34765;SDS011;20984;43.508;1.504;2022-08-19T04:56:09;12.88;;;6.00;;
34765;SDS011;20984;43.508;1.504;2022-08-19T04:58:38;8.30;;;5.78;;
34765;SDS011;20984;43.508;1.504;2022-08-19T05:01:06;13.75;;;5.80;;
34765;SDS011;20984;43.508;1.504;2022-08-19T05:03:35;18.25;;;6.93;;
34765;SDS011;20984;43.508;1.504;2022-08-19T05:06:07;12.98;;;6.28;;
34765;SDS011;20984;43.508;1.504;2022-08-19T05:08:35;12.35;;;5.63;;
34765;SDS011;20984;43.508;1.504;2022-08-19T05:11:07;17.80;;;6.03;;
34765;SDS011;20984;43.508;1.504;2022-08-19T05:13:36;14.25;;;6.68;;
34765;SDS011;20984;43.508;1.504;2022-08-19T05:16:03;10.30;;;6.18;;
34765;SDS011;20984;43.508;1.504;2022-08-19T05:18:29;10.90;;;6.15;;
34765;SDS011;20984;43.508;1.504;2022-08-19T05:21:14;15.30;;;6.50;;
34765;SDS011;20984;43.508;1.504;2022-08-19T05:24:01;15.85;;;6.80;;
34765;SDS011;20984;43.508;1.504;2022-08-19T05:26:30;9.75;;;6.15;;
34765;SDS011;20984;43.508;1.504;2022-08-19T05:28:56;11.88;;;6.28;;
34765;SDS011;20984;43.508;1.504;2022-08-19T05:31:22;18.70;;;7.38;;
34765;SDS011;20984;43.508;1.504;2022-08-19T05:33:47;10.55;;;6.03;;
34765;SDS011;20984;43.508;1.504;2022-08-19T05:36:14;18.98;;;7.50;;
34765;SDS011;20984;43.508;1.504;2022-08-19T05:38:40;10.93;;;6.45;;
34765;SDS011;20984;43.508;1.504;2022-08-19T05:41:09;8.15;;;5.97;;
34765;SDS011;20984;43.508;1.504;2022-08-19T05:43:36;13.55;;;6.53;;
34765;SDS011;20984;43.508;1.504;2022-08-19T05:46:05;12.07;;;6.53;;
34765;SDS011;20984;43.508;1.504;2022-08-19T05:48:32;11.15;;;5.70;;
34765;SDS011;20984;43.508;1.504;2022-08-19T05:51:03;13.88;;;7.25;;
34765;SDS011;20984;43.508;1.504;2022-08-19T05:53:31;14.75;;;6.80;;
34765;SDS011;20984;43.508;1.504;2022-08-19T05:55:57;10.00;;;6.10;;
34765;SDS011;20984;43.508;1.504;2022-08-19T05:58:28;22.30;;;6.90;;
34765;SDS011;20984;43.508;1.504;2022-08-19T06:00:53;12.75;;;6.13;;
34765;SDS011;20984;43.508;1.504;2022-08-19T06:03:19;12.13;;;6.50;;
34765;SDS011;20984;43.508;1.504;2022-08-19T06:05:45;12.90;;;6.65;;
34765;SDS011;20984;43.508;1.504;2022-08-19T06:08:11;11.38;;;6.50;;
34765;SDS011;20984;43.508;1.504;2022-08-19T06:10:37;19.92;;;6.88;;
34765;SDS011;20984;43.508;1.504;2022-08-19T06:13:03;11.15;;;6.18;;
34765;SDS011;20984;43.508;1.504;2022-08-19T06:15:30;15.75;;;6.55;;
34765;SDS011;20984;43.508;1.504;2022-08-19T06:17:56;17.15;;;6.25;;
34765;SDS011;20984;43.508;1.504;2022-08-19T06:20:22;17.40;;;6.45;;
34765;SDS011;20984;43.508;1.504;2022-08-19T06:22:48;13.02;;;6.35;;
34765;SDS011;20984;43.508;1.504;2022-08-19T06:25:17;14.45;;;5.97;;
34765;SDS011;20984;43.508;1.504;2022-08-19T06:27:43;13.75;;;5.82;;
34765;SDS011;20984;43.508;1.504;2022-08-19T06:30:09;11.00;;;5.60;;
34765;SDS011;20984;43.508;1.504;2022-08-19T06:32:39;14.93;;;6.82;;
34765;SDS011;20984;43.508;1.504;2022-08-19T06:35:05;14.07;;;6.07;;
34765;SDS011;20984;43.508;1.504;2022-08-19T06:37:31;15.38;;;5.28;;
34765;SDS011;20984;43.508;1.504;2022-08-19T06:40:00;10.70;;;4.60;;
34765;SDS011;20984;43.508;1.504;2022-08-19T06:42:29;14.73;;;6.55;;
34765;SDS011;20984;43.508;1.504;2022-08-19T06:44:55;13.13;;;6.22;;
34765;SDS011;20984;43.508;1.504;2022-08-19T06:47:22;11.82;;;5.80;;
34765;SDS011;20984;43.508;1.504;2022-08-19T06:49:48;10.35;;;4.90;;
34765;SDS011;20984;43.508;1.504;2022-08-19T06:52:14;11.70;;;5.47;;
34765;SDS011;20984;43.508;1.504;2022-08-19T06:54:41;12.23;;;5.35;;
34765;SDS011;20984;43.508;1.504;2022-08-19T06:57:07;13.10;;;5.45;;
34765;SDS011;20984;43.508;1.504;2022-08-19T06:59:38;13.48;;;5.63;;
34765;SDS011;20984;43.508;1.504;2022-08-19T07:02:04;8.20;;;4.78;;
34765;SDS011;20984;43.508;1.504;2022-08-19T07:04:32;8.70;;;4.85;;
34765;SDS011;20984;43.508;1.504;2022-08-19T07:07:00;12.63;;;5.00;;
34765;SDS011;20984;43.508;1.504;2022-08-19T07:09:30;12.38;;;5.00;;
34765;SDS011;20984;43.508;1.504;2022-08-19T07:11:56;15.30;;;5.10;;
34765;SDS011;20984;43.508;1.504;2022-08-19T07:14:23;13.77;;;5.18;;
34765;SDS011;20984;43.508;1.504;2022-08-19T07:16:55;10.80;;;5.90;;
34765;SDS011;20984;43.508;1.504;2022-08-19T07:19:25;16.40;;;5.55;;
34765;SDS011;20984;43.508;1.504;2022-08-19T07:21:52;11.73;;;5.38;;
34765;SDS011;20984;43.508;1.504;2022-08-19T07:24:22;13.57;;;4.93;;
34765;SDS011;20984;43.508;1.504;2022-08-19T07:26:52;14.32;;;5.78;;
34765;SDS011;20984;43.508;1.504;2022-08-19T07:29:22;6.82;;;4.68;;
34765;SDS011;20984;43.508;1.504;2022-08-19T07:31:49;10.18;;;5.10;;
34765;SDS011;20984;43.508;1.504;2022-08-19T07:34:16;14.50;;;5.70;;
34765;SDS011;20984;43.508;1.504;2022-08-19T07:36:44;16.63;;;5.40;;
34765;SDS011;20984;43.508;1.504;2022-08-19T07:39:14;12.15;;;4.32;;
34765;SDS011;20984;43.508;1.504;2022-08-19T07:41:45;8.35;;;4.75;;
34765;SDS011;20984;43.508;1.504;2022-08-19T07:44:12;10.60;;;4.68;;
34765;SDS011;20984;43.508;1.504;2022-08-19T07:46:39;10.65;;;4.57;;
34765;SDS011;20984;43.508;1.504;2022-08-19T07:49:07;12.75;;;5.75;;
34765;SDS011;20984;43.508;1.504;2022-08-19T07:51:43;10.88;;;4.80;;
34765;SDS011;20984;43.508;1.504;2022-08-19T07:54:14;8.60;;;4.80;;
34765;SDS011;20984;43.508;1.504;2022-08-19T07:56:41;12.30;;;4.70;;
34765;SDS011;20984;43.508;1.504;2022-08-19T07:59:07;9.25;;;4.28;;
34765;SDS011;20984;43.508;1.504;2022-08-19T08:01:47;8.73;;;4.28;;
34765;SDS011;20984;43.508;1.504;2022-08-19T08:04:15;10.07;;;4.43;;
34765;SDS011;20984;43.508;1.504;2022-08-19T08:07:01;14.07;;;4.07;;
34765;SDS011;20984;43.508;1.504;2022-08-19T08:09:45;26.45;;;6.25;;
34765;SDS011;20984;43.508;1.504;2022-08-19T08:12:15;8.82;;;4.03;;
34765;SDS011;20984;43.508;1.504;2022-08-19T08:14:49;11.77;;;4.38;;
34765;SDS011;20984;43.508;1.504;2022-08-19T08:17:18;6.32;;;4.30;;
34765;SDS011;20984;43.508;1.504;2022-08-19T08:19:46;10.02;;;4.07;;
34765;SDS011;20984;43.508;1.504;2022-08-19T08:22:15;12.25;;;4.95;;
34765;SDS011;20984;43.508;1.504;2022-08-19T08:25:23;8.73;;;4.05;;
34765;SDS011;20984;43.508;1.504;2022-08-19T08:27:48;11.27;;;4.63;;
34765;SDS011;20984;43.508;1.504;2022-08-19T08:30:22;8.68;;;4.07;;
34765;SDS011;20984;43.508;1.504;2022-08-19T08:32:49;9.00;;;4.70;;
34765;SDS011;20984;43.508;1.504;2022-08-19T08:35:18;14.38;;;4.65;;
34765;SDS011;20984;43.508;1.504;2022-08-19T08:37:47;11.30;;;4.38;;
34765;SDS011;20984;43.508;1.504;2022-08-19T08:46:01;6.80;;;4.15;;
34765;SDS011;20984;43.508;1.504;2022-08-19T08:48:34;11.15;;;3.67;;
34765;SDS011;20984;43.508;1.504;2022-08-19T08:51:09;9.75;;;3.95;;
34765;SDS011;20984;43.508;1.504;2022-08-19T08:53:38;7.72;;;3.85;;
34765;SDS011;20984;43.508;1.504;2022-08-19T08:56:06;8.25;;;4.22;;
34765;SDS011;20984;43.508;1.504;2022-08-19T08:58:49;9.57;;;3.97;;
34765;SDS011;20984;43.508;1.504;2022-08-19T09:01:23;8.57;;;4.40;;
34765;SDS011;20984;43.508;1.504;2022-08-19T09:03:49;9.88;;;4.60;;
34765;SDS011;20984;43.508;1.504;2022-08-19T09:06:21;11.70;;;4.35;;
34765;SDS011;20984;43.508;1.504;2022-08-19T09:19:33;5.90;;;4.00;;
34765;SDS011;20984;43.508;1.504;2022-08-19T09:22:00;10.13;;;4.10;;
34765;SDS011;20984;43.508;1.504;2022-08-19T09:24:26;7.07;;;4.40;;
34765;SDS011;20984;43.508;1.504;2022-08-19T09:26:52;7.47;;;4.00;;
34765;SDS011;20984;43.508;1.504;2022-08-19T09:29:18;6.78;;;4.35;;
34765;SDS011;20984;43.508;1.504;2022-08-19T09:31:45;11.50;;;4.28;;
34765;SDS011;20984;43.508;1.504;2022-08-19T09:34:11;6.38;;;3.75;;
34765;SDS011;20984;43.508;1.504;2022-08-19T09:36:37;9.52;;;4.35;;
34765;SDS011;20984;43.508;1.504;2022-08-19T09:39:04;13.05;;;4.45;;
34765;SDS011;20984;43.508;1.504;2022-08-19T09:41:31;7.65;;;3.92;;
34765;SDS011;20984;43.508;1.504;2022-08-19T09:43:57;6.32;;;3.58;;
34765;SDS011;20984;43.508;1.504;2022-08-19T09:46:25;5.03;;;3.70;;
34765;SDS011;20984;43.508;1.504;2022-08-19T09:48:52;15.68;;;5.60;;
34765;SDS011;20984;43.508;1.504;2022-08-19T09:51:21;9.27;;;4.00;;
34765;SDS011;20984;43.508;1.504;2022-08-19T09:53:51;8.50;;;4.22;;
34765;SDS011;20984;43.508;1.504;2022-08-19T09:56:21;16.52;;;4.70;;
34765;SDS011;20984;43.508;1.504;2022-08-19T09:58:47;7.57;;;3.92;;
34765;SDS011;20984;43.508;1.504;2022-08-19T10:01:18;9.55;;;4.63;;
34765;SDS011;20984;43.508;1.504;2022-08-19T10:03:49;10.77;;;4.18;;
34765;SDS011;20984;43.508;1.504;2022-08-19T10:06:33;16.42;;;4.53;;
34765;SDS011;20984;43.508;1.504;2022-08-19T10:09:06;8.77;;;3.70;;
34765;SDS011;20984;43.508;1.504;2022-08-19T10:11:56;6.30;;;3.83;;
34765;SDS011;20984;43.508;1.504;2022-08-19T10:14:21;8.63;;;4.40;;
34765;SDS011;20984;43.508;1.504;2022-08-19T10:16:48;7.88;;;3.88;;
34765;SDS011;20984;43.508;1.504;2022-08-19T10:19:14;11.75;;;4.68;;
34765;SDS011;20984;43.508;1.504;2022-08-19T10:21:40;7.05;;;3.88;;
34765;SDS011;20984;43.508;1.504;2022-08-19T10:24:05;10.18;;;4.47;;
34765;SDS011;20984;43.508;1.504;2022-08-19T10:26:33;6.72;;;3.63;;
34765;SDS011;20984;43.508;1.504;2022-08-19T10:29:29;9.95;;;4.38;;
34765;SDS011;20984;43.508;1.504;2022-08-19T10:31:55;10.95;;;3.35;;
34765;SDS011;20984;43.508;1.504;2022-08-19T10:34:22;8.57;;;4.35;;
34765;SDS011;20984;43.508;1.504;2022-08-19T10:36:51;8.93;;;3.70;;
34765;SDS011;20984;43.508;1.504;2022-08-19T10:39:32;8.43;;;3.70;;
34765;SDS011;20984;43.508;1.504;2022-08-19T10:42:21;8.85;;;3.92;;
34765;SDS011;20984;43.508;1.504;2022-08-19T10:44:52;8.23;;;4.93;;
34765;SDS011;20984;43.508;1.504;2022-08-19T10:47:18;5.40;;;3.90;;
34765;SDS011;20984;43.508;1.504;2022-08-19T10:49:52;10.73;;;4.47;;
34765;SDS011;20984;43.508;1.504;2022-08-19T10:52:45;7.65;;;4.47;;
34765;SDS011;20984;43.508;1.504;2022-08-19T10:55:12;7.63;;;3.42;;
34765;SDS011;20984;43.508;1.504;2022-08-19T10:57:56;6.32;;;4.32;;
34765;SDS011;20984;43.508;1.504;2022-08-19T11:00:22;8.75;;;4.57;;
34765;SDS011;20984;43.508;1.504;2022-08-19T11:02:50;7.95;;;4.13;;
34765;SDS011;20984;43.508;1.504;2022-08-19T11:05:16;9.38;;;4.32;;
34765;SDS011;20984;43.508;1.504;2022-08-19T11:07:56;6.07;;;3.65;;
34765;SDS011;20984;43.508;1.504;2022-08-19T11:10:45;6.28;;;3.60;;
34765;SDS011;20984;43.508;1.504;2022-08-19T11:13:11;6.75;;;4.03;;
34765;SDS011;20984;43.508;1.504;2022-08-19T11:15:39;6.85;;;3.90;;
34765;SDS011;20984;43.508;1.504;2022-08-19T11:18:08;8.30;;;3.78;;
34765;SDS011;20984;43.508;1.504;2022-08-19T11:20:36;7.40;;;4.15;;
34765;SDS011;20984;43.508;1.504;2022-08-19T11:23:11;10.90;;;4.70;;
34765;SDS011;20984;43.508;1.504;2022-08-19T11:25:38;8.65;;;3.88;;
34765;SDS011;20984;43.508;1.504;2022-08-19T11:28:13;5.43;;;3.72;;
34765;SDS011;20984;43.508;1.504;2022-08-19T11:30:39;7.72;;;4.18;;
34765;SDS011;20984;43.508;1.504;2022-08-19T11:33:04;7.63;;;3.78;;
34765;SDS011;20984;43.508;1.504;2022-08-19T11:35:33;8.55;;;3.03;;
34765;SDS011;20984;43.508;1.504;2022-08-19T11:38:02;8.05;;;4.20;;
34765;SDS011;20984;43.508;1.504;2022-08-19T11:40:30;11.93;;;4.55;;
34765;SDS011;20984;43.508;1.504;2022-08-19T11:42:58;6.13;;;3.30;;
34765;SDS011;20984;43.508;1.504;2022-08-19T11:45:27;6.82;;;2.97;;
34765;SDS011;20984;43.508;1.504;2022-08-19T11:48:11;6.05;;;3.40;;
34765;SDS011;20984;43.508;1.504;2022-08-19T11:50:41;7.35;;;3.50;;
34765;SDS011;20984;43.508;1.504;2022-08-19T11:53:12;5.40;;;3.90;;
34765;SDS011;20984;43.508;1.504;2022-08-19T11:55:40;8.00;;;3.33;;
34765;SDS011;20984;43.508;1.504;2022-08-19T11:58:12;4.40;;;3.10;;
34765;SDS011;20984;43.508;1.504;2022-08-19T12:00:39;5.65;;;3.67;;
34765;SDS011;20984;43.508;1.504;2022-08-19T12:03:06;7.05;;;3.25;;
34765;SDS011;20984;43.508;1.504;2022-08-19T12:05:36;5.88;;;3.38;;
34765;SDS011;20984;43.508;1.504;2022-08-19T12:08:03;7.20;;;3.28;;
34765;SDS011;20984;43.508;1.504;2022-08-19T12:10:30;11.45;;;3.17;;
34765;SDS011;20984;43.508;1.504;2022-08-19T12:12:55;4.90;;;3.13;;
34765;SDS011;20984;43.508;1.504;2022-08-19T12:15:24;3.92;;;2.33;;
34765;SDS011;20984;43.508;1.504;2022-08-19T12:18:33;7.47;;;4.15;;
34765;SDS011;20984;43.508;1.504;2022-08-19T12:21:00;4.63;;;2.58;;
34765;SDS011;20984;43.508;1.504;2022-08-19T12:23:26;7.40;;;3.88;;
34765;SDS011;20984;43.508;1.504;2022-08-19T12:25:52;9.75;;;3.60;;
34765;SDS011;20984;43.508;1.504;2022-08-19T12:28:20;6.03;;;3.45;;
34765;SDS011;20984;43.508;1.504;2022-08-19T12:30:47;6.97;;;3.15;;
34765;SDS011;20984;43.508;1.504;2022-08-19T12:33:16;5.97;;;3.00;;
34765;SDS011;20984;43.508;1.504;2022-08-19T12:35:43;6.15;;;2.80;;
34765;SDS011;20984;43.508;1.504;2022-08-19T12:38:14;5.78;;;3.00;;
34765;SDS011;20984;43.508;1.504;2022-08-19T12:41:01;8.48;;;3.45;;
34765;SDS011;20984;43.508;1.504;2022-08-19T12:43:31;11.00;;;2.75;;
34765;SDS011;20984;43.508;1.504;2022-08-19T12:46:16;5.85;;;3.20;;
34765;SDS011;20984;43.508;1.504;2022-08-19T12:48:43;5.70;;;3.45;;
34765;SDS011;20984;43.508;1.504;2022-08-19T12:51:13;4.15;;;2.63;;
34765;SDS011;20984;43.508;1.504;2022-08-19T12:53:43;7.65;;;3.10;;
34765;SDS011;20984;43.508;1.504;2022-08-19T12:56:22;5.55;;;3.10;;
34765;SDS011;20984;43.508;1.504;2022-08-19T12:58:51;6.32;;;3.28;;
34765;SDS011;20984;43.508;1.504;2022-08-19T13:01:17;6.82;;;2.92;;
34765;SDS011;20984;43.508;1.504;2022-08-19T13:03:46;4.88;;;3.00;;
34765;SDS011;20984;43.508;1.504;2022-08-19T13:06:12;7.53;;;2.70;;
34765;SDS011;20984;43.508;1.504;2022-08-19T13:08:47;4.15;;;2.83;;
34765;SDS011;20984;43.508;1.504;2022-08-19T13:11:17;6.18;;;2.75;;
34765;SDS011;20984;43.508;1.504;2022-08-19T13:13:52;5.90;;;3.28;;
34765;SDS011;20984;43.508;1.504;2022-08-19T13:16:21;5.05;;;2.92;;
34765;SDS011;20984;43.508;1.504;2022-08-19T13:18:47;8.35;;;3.05;;
34765;SDS011;20984;43.508;1.504;2022-08-19T13:21:17;5.07;;;2.45;;
34765;SDS011;20984;43.508;1.504;2022-08-19T13:23:45;5.03;;;2.70;;
34765;SDS011;20984;43.508;1.504;2022-08-19T13:26:12;5.05;;;2.53;;
34765;SDS011;20984;43.508;1.504;2022-08-19T13:28:38;5.40;;;2.40;;
34765;SDS011;20984;43.508;1.504;2022-08-19T13:31:24;7.00;;;3.22;;
34765;SDS011;20984;43.508;1.504;2022-08-19T13:34:10;4.15;;;2.38;;
34765;SDS011;20984;43.508;1.504;2022-08-19T13:36:37;5.97;;;2.28;;
34765;SDS011;20984;43.508;1.504;2022-08-19T13:39:04;5.03;;;2.20;;
34765;SDS011;20984;43.508;1.504;2022-08-19T13:41:32;7.97;;;2.33;;
34765;SDS011;20984;43.508;1.504;2022-08-19T13:43:59;3.63;;;2.38;;
34765;SDS011;20984;43.508;1.504;2022-08-19T13:46:26;4.30;;;2.38;;
34765;SDS011;20984;43.508;1.504;2022-08-19T13:48:54;3.80;;;2.50;;
34765;SDS011;20984;43.508;1.504;2022-08-19T13:51:21;4.90;;;2.90;;
34765;SDS011;20984;43.508;1.504;2022-08-19T13:53:49;6.00;;;2.83;;
34765;SDS011;20984;43.508;1.504;2022-08-19T13:56:16;5.65;;;2.70;;
34765;SDS011;20984;43.508;1.504;2022-08-19T13:58:44;9.57;;;3.40;;
34765;SDS011;20984;43.508;1.504;2022-08-19T14:01:17;4.90;;;1.98;;
34765;SDS011;20984;43.508;1.504;2022-08-19T14:03:45;6.35;;;2.55;;
34765;SDS011;20984;43.508;1.504;2022-08-19T14:06:11;6.45;;;2.72;;
34765;SDS011;20984;43.508;1.504;2022-08-19T14:08:39;4.68;;;2.90;;
34765;SDS011;20984;43.508;1.504;2022-08-19T14:11:07;4.13;;;2.53;;
34765;SDS011;20984;43.508;1.504;2022-08-19T14:13:33;7.00;;;2.60;;
34765;SDS011;20984;43.508;1.504;2022-08-19T14:15:59;5.75;;;2.13;;
34765;SDS011;20984;43.508;1.504;2022-08-19T14:18:32;4.38;;;2.05;;
34765;SDS011;20984;43.508;1.504;2022-08-19T14:20:59;6.30;;;2.30;;
34765;SDS011;20984;43.508;1.504;2022-08-19T14:23:24;7.20;;;3.10;;
34765;SDS011;20984;43.508;1.504;2022-08-19T14:26:02;4.38;;;2.80;;
34765;SDS011;20984;43.508;1.504;2022-08-19T14:28:34;4.05;;;2.55;;
34765;SDS011;20984;43.508;1.504;2022-08-19T14:31:00;6.45;;;2.58;;
34765;SDS011;20984;43.508;1.504;2022-08-19T14:33:35;6.88;;;2.10;;
34765;SDS011;20984;43.508;1.504;2022-08-19T14:36:41;4.85;;;2.30;;
34765;SDS011;20984;43.508;1.504;2022-08-19T14:39:08;5.68;;;2.67;;
34765;SDS011;20984;43.508;1.504;2022-08-19T14:41:34;6.97;;;2.58;;
34765;SDS011;20984;43.508;1.504;2022-08-19T14:44:00;5.40;;;2.45;;
34765;SDS011;20984;43.508;1.504;2022-08-19T14:46:28;5.03;;;2.08;;
34765;SDS011;20984;43.508;1.504;2022-08-19T14:49:02;3.33;;;2.20;;
34765;SDS011;20984;43.508;1.504;2022-08-19T14:54:16;10.50;;;2.72;;
34765;SDS011;20984;43.508;1.504;2022-08-19T14:56:42;6.28;;;2.40;;
34765;SDS011;20984;43.508;1.504;2022-08-19T14:59:10;5.75;;;2.33;;
34765;SDS011;20984;43.508;1.504;2022-08-19T15:01:36;6.85;;;2.75;;
34765;SDS011;20984;43.508;1.504;2022-08-19T15:04:02;5.82;;;2.80;;
34765;SDS011;20984;43.508;1.504;2022-08-19T15:06:28;5.63;;;2.25;;
34765;SDS011;20984;43.508;1.504;2022-08-19T15:08:54;9.27;;;2.55;;
34765;SDS011;20984;43.508;1.504;2022-08-19T15:11:22;5.53;;;2.20;;
34765;SDS011;20984;43.508;1.504;2022-08-19T15:13:50;4.50;;;2.05;;
34765;SDS011;20984;43.508;1.504;2022-08-19T15:16:18;6.93;;;2.33;;